Time,TemperatureF,DewpointF,PressureIn,WindDirection,WindDirectionDegrees,WindSpeedMPH,WindSpeedGustMPH,Humidity,HourlyPrecipIn,Conditions,Clouds,dailyrainin,SoftwareType,DateUTC
2013-02-19 00:03:00,13.2,7.0,29.84,NW,313,18.0,18.0,76,0.00,,,0.00,Wunderground v.1.15,2013-02-19 06:03:00,
2013-02-19 00:08:00,13.1,6.7,29.84,NW,311,20.0,29.0,75,0.00,,,0.00,Wunderground v.1.15,2013-02-19 06:08:00,
2013-02-19 00:13:00,13.0,6.9,29.85,NW,313,20.0,25.0,76,0.00,,,0.00,Wunderground v.1.15,2013-02-19 06:13:00,
2013-02-19 00:18:00,13.1,7.5,29.85,NW,315,21.0,25.0,78,0.00,,,0.00,Wunderground v.1.15,2013-02-19 06:18:00,
2013-02-19 00:24:00,13.2,8.2,29.85,NW,311,23.0,23.0,80,0.00,,,0.00,Wunderground v.1.15,2013-02-19 06:24:00,
2013-02-19 00:30:00,13.0,7.4,29.86,WNW,289,23.0,28.0,78,0.00,,,0.00,Wunderground v.1.15,2013-02-19 06:30:00,
2013-02-19 00:35:00,12.9,7.9,29.86,WNW,296,24.0,27.0,80,0.00,,,0.00,Wunderground v.1.15,2013-02-19 06:35:00,
2013-02-19 00:41:00,13.0,8.0,29.86,WNW,301,24.0,27.0,80,0.00,,,0.00,Wunderground v.1.15,2013-02-19 06:41:00,
2013-02-19 00:47:00,12.8,7.5,29.86,WNW,300,24.0,25.0,79,0.00,,,0.00,Wunderground v.1.15,2013-02-19 06:47:00,
2013-02-19 00:52:00,12.7,7.7,29.86,NW,309,18.0,24.0,80,0.00,,,0.00,Wunderground v.1.15,2013-02-19 06:52:00,
2013-02-19 00:58:00,12.7,7.7,29.86,WNW,300,21.0,27.0,80,0.00,,,0.00,Wunderground v.1.15,2013-02-19 06:58:00,
2013-02-19 01:03:00,12.7,8.0,29.86,WNW,300,24.0,29.0,81,0.00,,,0.00,Wunderground v.1.15,2013-02-19 07:03:00,
2013-02-19 01:08:00,12.6,7.3,29.87,WNW,294,24.0,29.0,79,0.00,,,0.00,Wunderground v.1.15,2013-02-19 07:08:00,
2013-02-19 01:14:00,12.3,7.3,29.87,WNW,295,23.0,26.0,80,0.00,,,0.00,Wunderground v.1.15,2013-02-19 07:14:00,
2013-02-19 01:20:00,11.9,7.2,29.88,WNW,299,24.0,26.0,81,0.00,,,0.00,Wunderground v.1.15,2013-02-19 07:20:00,
2013-02-19 01:25:00,11.6,6.1,29.88,NW,309,22.0,26.0,78,0.00,,,0.00,Wunderground v.1.15,2013-02-19 07:25:00,
2013-02-19 01:33:00,11.4,6.2,29.88,NW,306,24.0,24.0,79,0.00,,,0.00,Wunderground v.1.15,2013-02-19 07:33:00,
2013-02-19 01:38:00,11.5,5.7,29.88,WNW,297,26.0,28.0,77,0.00,,,0.00,Wunderground v.1.15,2013-02-19 07:38:00,
2013-02-19 01:43:00,11.4,5.6,29.89,WNW,298,24.0,25.0,77,0.00,,,0.00,Wunderground v.1.15,2013-02-19 07:43:00,
2013-02-19 01:48:00,11.4,5.9,29.89,WNW,297,23.0,25.0,78,0.00,,,0.00,Wunderground v.1.15,2013-02-19 07:48:00,
2013-02-19 01:54:00,11.3,6.1,29.89,NW,309,24.0,24.0,79,0.00,,,0.00,Wunderground v.1.15,2013-02-19 07:54:00,
2013-02-19 02:00:00,11.4,6.4,29.89,NW,314,15.0,20.0,80,0.00,,,0.00,Wunderground v.1.15,2013-02-19 08:00:00,
2013-02-19 02:05:00,11.4,7.0,29.89,NW,319,22.0,27.0,82,0.00,,,0.00,Wunderground v.1.15,2013-02-19 08:05:00,
2013-02-19 02:10:00,11.2,6.5,29.89,WNW,302,24.0,24.0,81,0.00,,,0.00,Wunderground v.1.15,2013-02-19 08:10:00,
2013-02-19 02:15:00,10.7,4.6,29.89,WNW,300,26.0,27.0,76,0.00,,,0.00,Wunderground v.1.15,2013-02-19 08:15:00,
2013-02-19 02:22:00,10.4,4.6,29.90,NW,323,27.0,27.0,77,0.00,,,0.00,Wunderground v.1.15,2013-02-19 08:22:00,
2013-02-19 02:29:00,10.3,4.5,29.90,NW,305,24.0,29.0,77,0.00,,,0.00,Wunderground v.1.15,2013-02-19 08:29:00,
2013-02-19 02:34:00,10.3,4.5,29.90,NW,312,22.0,31.0,77,0.00,,,0.00,Wunderground v.1.15,2013-02-19 08:34:00,
2013-02-19 02:39:00,10.1,4.6,29.90,NW,309,27.0,31.0,78,0.00,,,0.00,Wunderground v.1.15,2013-02-19 08:39:00,
2013-02-19 02:44:00,10.0,4.8,29.91,NW,304,16.0,26.0,79,0.00,,,0.00,Wunderground v.1.15,2013-02-19 08:44:00,
2013-02-19 02:49:00,10.0,5.1,29.91,NW,309,16.0,26.0,80,0.00,,,0.00,Wunderground v.1.15,2013-02-19 08:49:00,
2013-02-19 02:54:00,10.0,5.3,29.91,WNW,298,21.0,28.0,81,0.00,,,0.00,Wunderground v.1.15,2013-02-19 08:54:00,
2013-02-19 02:59:00,9.5,4.3,29.91,WNW,293,21.0,31.0,79,0.00,,,0.00,Wunderground v.1.15,2013-02-19 08:59:00,
2013-02-19 03:04:00,9.1,3.6,29.91,WNW,293,30.0,32.0,78,0.00,,,0.00,Wunderground v.1.15,2013-02-19 09:04:00,
2013-02-19 03:09:00,8.9,3.2,29.91,WNW,301,27.0,28.0,77,0.00,,,0.00,Wunderground v.1.15,2013-02-19 09:09:00,
2013-02-19 03:14:00,8.8,2.8,29.92,NW,306,23.0,28.0,76,0.00,,,0.00,Wunderground v.1.15,2013-02-19 09:14:00,
2013-02-19 03:19:00,8.8,3.1,29.92,NW,311,25.0,28.0,77,0.00,,,0.00,Wunderground v.1.15,2013-02-19 09:19:00,
2013-02-19 03:24:00,8.8,3.3,29.92,NW,318,20.0,23.0,78,0.00,,,0.00,Wunderground v.1.15,2013-02-19 09:24:00,
2013-02-19 03:29:00,8.8,3.3,29.92,NW,306,20.0,24.0,78,0.00,,,0.00,Wunderground v.1.15,2013-02-19 09:29:00,
2013-02-19 03:34:00,8.8,3.6,29.92,NW,309,21.0,26.0,79,0.00,,,0.00,Wunderground v.1.15,2013-02-19 09:34:00,
2013-02-19 03:39:00,8.8,3.6,29.92,WNW,298,19.0,28.0,79,0.00,,,0.00,Wunderground v.1.15,2013-02-19 09:39:00,
2013-02-19 03:50:00,8.4,2.7,29.92,WNW,299,23.0,27.0,77,0.00,,,0.00,Wunderground v.1.15,2013-02-19 09:50:00,
2013-02-19 03:55:00,8.2,2.8,29.93,WNW,300,16.0,29.0,78,0.00,,,0.00,Wunderground v.1.15,2013-02-19 09:55:00,
2013-02-19 04:00:00,8.2,2.8,29.93,NW,307,18.0,25.0,78,0.00,,,0.00,Wunderground v.1.15,2013-02-19 10:00:00,
2013-02-19 04:05:00,8.2,2.8,29.93,NW,305,18.0,26.0,78,0.00,,,0.00,Wunderground v.1.15,2013-02-19 10:05:00,
2013-02-19 04:10:00,8.2,2.8,29.93,WNW,300,24.0,24.0,78,0.00,,,0.00,Wunderground v.1.15,2013-02-19 10:10:00,
2013-02-19 04:15:00,8.3,2.9,29.94,NW,312,21.0,27.0,78,0.00,,,0.00,Wunderground v.1.15,2013-02-19 10:15:00,
2013-02-19 04:20:00,8.2,2.8,29.94,NW,304,19.0,29.0,78,0.00,,,0.00,Wunderground v.1.15,2013-02-19 10:20:00,
2013-02-19 04:25:00,8.1,2.9,29.94,NW,309,18.0,25.0,79,0.00,,,0.00,Wunderground v.1.15,2013-02-19 10:25:00,
2013-02-19 04:30:00,8.1,2.9,29.94,NW,304,20.0,30.0,79,0.00,,,0.00,Wunderground v.1.15,2013-02-19 10:30:00,
2013-02-19 04:35:00,7.9,2.7,29.94,NW,305,19.0,27.0,79,0.00,,,0.00,Wunderground v.1.15,2013-02-19 10:35:00,
2013-02-19 04:40:00,7.6,2.2,29.95,WNW,296,27.0,30.0,78,0.00,,,0.00,Wunderground v.1.15,2013-02-19 10:40:00,
2013-02-19 04:45:00,7.4,1.7,29.95,NW,304,27.0,31.0,77,0.00,,,0.00,Wunderground v.1.15,2013-02-19 10:45:00,
2013-02-19 04:50:00,7.2,1.5,29.95,WNW,300,27.0,31.0,77,0.00,,,0.00,Wunderground v.1.15,2013-02-19 10:50:00,
2013-02-19 04:55:00,6.9,1.2,29.96,WNW,295,17.0,28.0,77,0.00,,,0.00,Wunderground v.1.15,2013-02-19 10:55:00,
2013-02-19 05:01:00,6.6,0.9,29.96,WNW,291,22.0,26.0,77,0.00,,,0.00,Wunderground v.1.15,2013-02-19 11:01:00,
2013-02-19 05:13:00,6.3,0.6,29.97,NW,305,27.0,27.0,77,0.00,,,0.00,Wunderground v.1.15,2013-02-19 11:13:00,
2013-02-19 05:18:00,6.0,0.3,29.97,WNW,294,21.0,30.0,77,0.00,,,0.00,Wunderground v.1.15,2013-02-19 11:18:00,
2013-02-19 05:23:00,6.0,0.3,29.97,WNW,297,25.0,26.0,77,0.00,,,0.00,Wunderground v.1.15,2013-02-19 11:23:00,
2013-02-19 05:28:00,5.7,-0.2,29.98,NW,314,28.0,31.0,76,0.00,,,0.00,Wunderground v.1.15,2013-02-19 11:28:00,
2013-02-19 05:33:00,5.6,0.2,29.98,NW,313,22.0,23.0,78,0.00,,,0.00,Wunderground v.1.15,2013-02-19 11:33:00,
2013-02-19 05:38:00,5.6,0.2,29.98,NW,317,25.0,30.0,78,0.00,,,0.00,Wunderground v.1.15,2013-02-19 11:38:00,
2013-02-19 05:43:00,5.5,-0.1,29.98,WNW,300,20.0,27.0,77,0.00,,,0.00,Wunderground v.1.15,2013-02-19 11:43:00,
2013-02-19 05:48:00,5.3,-0.3,29.98,WNW,298,23.0,30.0,77,0.00,,,0.00,Wunderground v.1.15,2013-02-19 11:48:00,
2013-02-19 05:54:00,5.2,-0.4,29.99,WNW,298,24.0,24.0,77,0.00,,,0.00,Wunderground v.1.15,2013-02-19 11:54:00,
2013-02-19 05:59:00,5.2,-0.4,29.99,WNW,299,23.0,29.0,77,0.00,,,0.00,Wunderground v.1.15,2013-02-19 11:59:00,
2013-02-19 06:11:00,5.1,-0.3,29.99,WNW,300,25.0,25.0,78,0.00,,,0.00,Wunderground v.1.15,2013-02-19 12:11:00,
2013-02-19 06:16:00,5.1,0.0,29.99,NW,311,24.0,31.0,79,0.00,,,0.00,Wunderground v.1.15,2013-02-19 12:16:00,
2013-02-19 06:23:00,5.1,-0.3,30.00,WNW,300,23.0,23.0,78,0.00,,,0.00,Wunderground v.1.15,2013-02-19 12:23:00,
2013-02-19 06:28:00,5.0,-0.4,30.00,NW,306,23.0,27.0,78,0.00,,,0.00,Wunderground v.1.15,2013-02-19 12:28:00,
2013-02-19 06:33:00,4.9,-0.5,30.01,WNW,290,19.0,22.0,78,0.00,,,0.00,Wunderground v.1.15,2013-02-19 12:33:00,
2013-02-19 06:38:00,4.9,-0.5,30.01,WNW,296,27.0,29.0,78,0.00,,,0.00,Wunderground v.1.15,2013-02-19 12:38:00,
2013-02-19 06:52:00,4.6,-0.8,30.01,NW,309,24.0,24.0,78,0.00,,,0.00,Wunderground v.1.15,2013-02-19 12:52:00,
2013-02-19 06:57:00,4.6,-0.8,30.02,NW,311,19.0,26.0,78,0.00,,,0.00,Wunderground v.1.15,2013-02-19 12:57:00,
2013-02-19 07:10:00,4.6,-0.8,30.03,WNW,297,16.0,27.0,78,0.00,,,0.00,Wunderground v.1.15,2013-02-19 13:10:00,
2013-02-19 07:15:00,4.5,-0.8,30.03,NW,312,18.0,28.0,78,0.00,,,0.00,Wunderground v.1.15,2013-02-19 13:15:00,
2013-02-19 07:20:00,4.5,-0.8,30.03,NW,311,14.0,29.0,78,0.00,,,0.00,Wunderground v.1.15,2013-02-19 13:20:00,
2013-02-19 07:25:00,4.6,-0.8,30.04,WNW,298,22.0,22.0,78,0.00,,,0.00,Wunderground v.1.15,2013-02-19 13:25:00,
2013-02-19 07:30:00,4.7,-0.4,30.04,NW,308,22.0,29.0,79,0.00,,,0.00,Wunderground v.1.15,2013-02-19 13:30:00,
2013-02-19 07:35:00,4.7,-0.9,30.04,WNW,303,25.0,28.0,77,0.00,,,0.00,Wunderground v.1.15,2013-02-19 13:35:00,
2013-02-19 07:40:00,4.7,-0.9,30.05,NW,320,25.0,31.0,77,0.00,,,0.00,Wunderground v.1.15,2013-02-19 13:40:00,
2013-02-19 07:52:00,4.9,-1.0,30.06,WNW,296,28.0,28.0,76,0.00,,,0.00,Wunderground v.1.15,2013-02-19 13:52:00,
2013-02-19 07:58:00,5.1,-0.5,30.06,NW,306,26.0,30.0,77,0.00,,,0.00,Wunderground v.1.15,2013-02-19 13:58:00,
2013-02-19 08:03:00,5.2,-0.4,30.06,NW,312,30.0,30.0,77,0.00,,,0.00,Wunderground v.1.15,2013-02-19 14:03:00,
2013-02-19 08:08:00,5.3,-0.3,30.06,NW,306,29.0,30.0,77,0.00,,,0.00,Wunderground v.1.15,2013-02-19 14:08:00,
2013-02-19 08:13:00,5.1,-0.8,30.06,NW,319,20.0,27.0,76,0.00,,,0.00,Wunderground v.1.15,2013-02-19 14:13:00,
2013-02-19 08:19:00,5.5,-0.1,30.06,WNW,303,29.0,32.0,77,0.00,,,0.00,Wunderground v.1.15,2013-02-19 14:19:00,
2013-02-19 08:30:00,5.8,-0.1,30.07,NW,310,18.0,29.0,76,0.00,,,0.00,Wunderground v.1.15,2013-02-19 14:30:00,
2013-02-19 08:35:00,6.0,-0.2,30.07,WNW,293,27.0,32.0,75,0.00,,,0.00,Wunderground v.1.15,2013-02-19 14:35:00,
2013-02-19 08:40:00,6.2,0.0,30.07,NW,307,27.0,32.0,75,0.00,,,0.00,Wunderground v.1.15,2013-02-19 14:40:00,
2013-02-19 08:45:00,6.5,0.5,30.07,NW,313,28.0,30.0,76,0.00,,,0.00,Wunderground v.1.15,2013-02-19 14:45:00,
2013-02-19 08:50:00,6.8,0.8,30.07,NW,304,17.0,30.0,76,0.00,,,0.00,Wunderground v.1.15,2013-02-19 14:50:00,
2013-02-19 09:14:00,7.8,1.2,30.08,NW,308,20.0,27.0,74,0.00,,,0.00,Wunderground v.1.15,2013-02-19 15:14:00,
2013-02-19 09:19:00,7.7,1.1,30.08,NW,306,22.0,29.0,74,0.00,,,0.00,Wunderground v.1.15,2013-02-19 15:19:00,
2013-02-19 09:31:00,8.5,1.6,30.09,NW,306,23.0,31.0,73,0.00,,,0.00,Wunderground v.1.15,2013-02-19 15:31:00,
2013-02-19 09:42:00,8.9,2.3,30.10,NW,309,30.0,30.0,74,0.00,,,0.00,Wunderground v.1.15,2013-02-19 15:42:00,
2013-02-19 09:48:00,8.8,1.9,30.09,WNW,297,21.0,31.0,73,0.00,,,0.00,Wunderground v.1.15,2013-02-19 15:48:00,
2013-02-19 09:53:00,9.1,2.2,30.10,NW,309,23.0,27.0,73,0.00,,,0.00,Wunderground v.1.15,2013-02-19 15:53:00,
2013-02-19 09:58:00,9.1,1.9,30.10,NW,318,31.0,34.0,72,0.00,,,0.00,Wunderground v.1.15,2013-02-19 15:58:00,
2013-02-19 10:10:00,9.7,2.5,30.10,NW,311,22.0,29.0,72,0.00,,,0.00,Wunderground v.1.15,2013-02-19 16:10:00,
2013-02-19 10:19:00,10.2,3.6,30.11,NW,307,29.0,29.0,74,0.00,,,0.00,Wunderground v.1.15,2013-02-19 16:19:00,
2013-02-19 10:23:00,10.3,3.4,30.10,WNW,302,26.0,26.0,73,0.00,,,0.00,Wunderground v.1.15,2013-02-19 16:23:00,
2013-02-19 10:28:00,10.7,3.7,30.11,NW,309,23.0,30.0,73,0.00,,,0.00,Wunderground v.1.15,2013-02-19 16:28:00,
2013-02-19 10:33:00,10.7,3.4,30.11,NW,305,25.0,28.0,72,0.00,,,0.00,Wunderground v.1.15,2013-02-19 16:33:00,
2013-02-19 10:38:00,11.0,4.0,30.11,WNW,303,20.0,30.0,73,0.00,,,0.00,Wunderground v.1.15,2013-02-19 16:38:00,
2013-02-19 10:43:00,11.0,4.0,30.12,WNW,292,22.0,25.0,73,0.00,,,0.00,Wunderground v.1.15,2013-02-19 16:43:00,
2013-02-19 10:49:00,11.2,4.2,30.12,NW,305,21.0,31.0,73,0.00,,,0.00,Wunderground v.1.15,2013-02-19 16:49:00,
2013-02-19 10:54:00,11.1,3.5,30.12,WNW,288,23.0,27.0,71,0.00,,,0.00,Wunderground v.1.15,2013-02-19 16:54:00,
2013-02-19 10:59:00,11.5,3.9,30.12,NW,306,25.0,32.0,71,0.00,,,0.00,Wunderground v.1.15,2013-02-19 16:59:00,
2013-02-19 11:11:00,12.5,5.2,30.13,NW,321,24.0,27.0,72,0.00,,,0.00,Wunderground v.1.15,2013-02-19 17:11:00,
2013-02-19 11:16:00,12.3,5.0,30.13,NW,312,23.0,27.0,72,0.00,,,0.00,Wunderground v.1.15,2013-02-19 17:16:00,
2013-02-19 11:21:00,12.7,5.1,30.13,NW,314,30.0,33.0,71,0.00,,,0.00,Wunderground v.1.15,2013-02-19 17:21:00,
2013-02-19 11:26:00,12.5,4.9,30.13,WNW,297,22.0,31.0,71,0.00,,,0.00,Wunderground v.1.15,2013-02-19 17:26:00,
2013-02-19 11:31:00,12.9,5.6,30.13,NW,310,19.0,31.0,72,0.00,,,0.00,Wunderground v.1.15,2013-02-19 17:31:00,
2013-02-19 11:36:00,12.9,5.0,30.13,NW,310,23.0,31.0,70,0.00,,,0.00,Wunderground v.1.15,2013-02-19 17:36:00,
2013-02-19 11:42:00,13.4,5.7,30.13,NW,312,27.0,27.0,71,0.00,,,0.00,Wunderground v.1.15,2013-02-19 17:42:00,
2013-02-19 11:47:00,13.9,6.2,30.14,WNW,298,25.0,30.0,71,0.00,,,0.00,Wunderground v.1.15,2013-02-19 17:47:00,
2013-02-19 11:52:00,14.0,6.3,30.14,NW,315,23.0,26.0,71,0.00,,,0.00,Wunderground v.1.15,2013-02-19 17:52:00,
2013-02-19 11:58:00,13.7,6.0,30.14,WNW,292,20.0,30.0,71,0.00,,,0.00,Wunderground v.1.15,2013-02-19 17:58:00,
2013-02-19 12:03:00,14.4,6.4,30.13,NW,322,25.0,25.0,70,0.00,,,0.00,Wunderground v.1.15,2013-02-19 18:03:00,
2013-02-19 12:08:00,14.4,6.4,30.14,WNW,298,15.0,28.0,70,0.00,,,0.00,Wunderground v.1.15,2013-02-19 18:08:00,
2013-02-19 12:13:00,15.0,7.0,30.14,WNW,298,20.0,26.0,70,0.00,,,0.00,Wunderground v.1.15,2013-02-19 18:13:00,
2013-02-19 12:18:00,15.0,6.7,30.14,NW,311,26.0,30.0,69,0.00,,,0.00,Wunderground v.1.15,2013-02-19 18:18:00,
2013-02-19 12:23:00,15.2,7.2,30.13,WNW,294,29.0,29.0,70,0.00,,,0.00,Wunderground v.1.15,2013-02-19 18:23:00,
2013-02-19 12:28:00,15.3,6.9,30.14,WNW,303,25.0,34.0,69,0.00,,,0.00,Wunderground v.1.15,2013-02-19 18:28:00,
2013-02-19 12:33:00,15.7,7.3,30.14,NW,317,28.0,28.0,69,0.00,,,0.00,Wunderground v.1.15,2013-02-19 18:33:00,
2013-02-19 12:38:00,15.7,7.3,30.14,WNW,291,19.0,30.0,69,0.00,,,0.00,Wunderground v.1.15,2013-02-19 18:38:00,
2013-02-19 12:43:00,16.0,7.6,30.14,NW,307,24.0,28.0,69,0.00,,,0.00,Wunderground v.1.15,2013-02-19 18:43:00,
2013-02-19 12:48:00,16.3,7.9,30.14,WNW,299,26.0,30.0,69,0.00,,,0.00,Wunderground v.1.15,2013-02-19 18:48:00,
2013-02-19 12:53:00,16.2,7.8,30.14,NW,307,17.0,28.0,69,0.00,,,0.00,Wunderground v.1.15,2013-02-19 18:53:00,
2013-02-19 12:58:00,16.1,7.1,30.14,WNW,287,29.0,30.0,67,0.00,,,0.00,Wunderground v.1.15,2013-02-19 18:58:00,
2013-02-19 13:03:00,16.8,8.1,30.14,NW,311,27.0,29.0,68,0.00,,,0.00,Wunderground v.1.15,2013-02-19 19:03:00,
2013-02-19 13:08:00,16.4,7.7,30.14,WNW,293,19.0,32.0,68,0.00,,,0.00,Wunderground v.1.15,2013-02-19 19:08:00,
2013-02-19 13:13:00,16.6,7.9,30.15,NW,308,25.0,30.0,68,0.00,,,0.00,Wunderground v.1.15,2013-02-19 19:13:00,
2013-02-19 13:18:00,16.2,7.2,30.15,WNW,303,21.0,33.0,67,0.00,,,0.00,Wunderground v.1.15,2013-02-19 19:18:00,
2013-02-19 13:23:00,16.8,8.1,30.15,WNW,297,17.0,27.0,68,0.00,,,0.00,Wunderground v.1.15,2013-02-19 19:23:00,
2013-02-19 13:28:00,17.2,8.1,30.15,NW,308,24.0,28.0,67,0.00,,,0.00,Wunderground v.1.15,2013-02-19 19:28:00,
2013-02-19 13:33:00,17.8,9.3,30.14,WNW,294,23.0,24.0,69,0.00,,,0.00,Wunderground v.1.15,2013-02-19 19:33:00,
2013-02-19 13:38:00,17.5,8.4,30.15,WNW,298,17.0,29.0,67,0.00,,,0.00,Wunderground v.1.15,2013-02-19 19:38:00,
2013-02-19 13:44:00,17.6,8.5,30.15,WNW,302,30.0,30.0,67,0.00,,,0.00,Wunderground v.1.15,2013-02-19 19:44:00,
2013-02-19 13:49:00,17.2,7.8,30.15,NW,311,22.0,32.0,66,0.00,,,0.00,Wunderground v.1.15,2013-02-19 19:49:00,
2013-02-19 13:54:00,17.9,9.1,30.15,NW,306,24.0,29.0,68,0.00,,,0.00,Wunderground v.1.15,2013-02-19 19:54:00,
2013-02-19 13:59:00,17.7,7.9,30.15,NW,309,27.0,30.0,65,0.00,,,0.00,Wunderground v.1.15,2013-02-19 19:59:00,
2013-02-19 14:08:00,17.8,8.7,30.15,WNW,288,26.0,26.0,67,0.00,,,0.00,Wunderground v.1.15,2013-02-19 20:08:00,
2013-02-19 14:13:00,17.9,8.5,30.16,WNW,300,25.0,25.0,66,0.00,,,0.00,Wunderground v.1.15,2013-02-19 20:13:00,
2013-02-19 14:18:00,18.3,9.2,30.16,NW,307,27.0,30.0,67,0.00,,,0.00,Wunderground v.1.15,2013-02-19 20:18:00,
2013-02-19 14:23:00,18.4,8.9,30.16,WNW,291,24.0,29.0,66,0.00,,,0.00,Wunderground v.1.15,2013-02-19 20:23:00,
2013-02-19 14:28:00,18.2,8.4,30.16,NW,309,29.0,31.0,65,0.00,,,0.00,Wunderground v.1.15,2013-02-19 20:28:00,
2013-02-19 14:33:00,18.3,8.8,30.16,NW,306,27.0,30.0,66,0.00,,,0.00,Wunderground v.1.15,2013-02-19 20:33:00,
2013-02-19 14:38:00,18.7,9.2,30.16,NW,309,29.0,30.0,66,0.00,,,0.00,Wunderground v.1.15,2013-02-19 20:38:00,
2013-02-19 14:43:00,18.9,9.4,30.16,NW,310,27.0,27.0,66,0.00,,,0.00,Wunderground v.1.15,2013-02-19 20:43:00,
2013-02-19 14:48:00,18.8,8.6,30.17,NW,304,26.0,30.0,64,0.00,,,0.00,Wunderground v.1.15,2013-02-19 20:48:00,
2013-02-19 14:53:00,18.8,9.0,30.17,NW,308,23.0,26.0,65,0.00,,,0.00,Wunderground v.1.15,2013-02-19 20:53:00,
2013-02-19 14:58:00,18.8,9.0,30.17,NW,305,25.0,27.0,65,0.00,,,0.00,Wunderground v.1.15,2013-02-19 20:58:00,
2013-02-19 15:03:00,19.1,9.3,30.17,WNW,300,21.0,31.0,65,0.00,,,0.00,Wunderground v.1.15,2013-02-19 21:03:00,
2013-02-19 15:08:00,18.8,8.6,30.17,NW,309,32.0,32.0,64,0.00,,,0.00,Wunderground v.1.15,2013-02-19 21:08:00,
2013-02-19 15:13:00,18.7,8.5,30.18,NW,317,23.0,32.0,64,0.00,,,0.00,Wunderground v.1.15,2013-02-19 21:13:00,
2013-02-19 15:18:00,18.8,8.6,30.18,NW,313,21.0,32.0,64,0.00,,,0.00,Wunderground v.1.15,2013-02-19 21:18:00,
2013-02-19 15:23:00,19.0,8.8,30.18,WNW,292,25.0,28.0,64,0.00,,,0.00,Wunderground v.1.15,2013-02-19 21:23:00,
2013-02-19 15:28:00,18.7,8.2,30.18,WNW,293,28.0,31.0,63,0.00,,,0.00,Wunderground v.1.15,2013-02-19 21:28:00,
2013-02-19 15:33:00,18.7,8.2,30.18,NW,315,24.0,29.0,63,0.00,,,0.00,Wunderground v.1.15,2013-02-19 21:33:00,
2013-02-19 15:38:00,18.6,8.1,30.18,NW,306,20.0,30.0,63,0.00,,,0.00,Wunderground v.1.15,2013-02-19 21:38:00,
2013-02-19 15:43:00,18.8,8.6,30.18,WNW,298,25.0,29.0,64,0.00,,,0.00,Wunderground v.1.15,2013-02-19 21:43:00,
2013-02-19 15:48:00,19.0,8.5,30.18,NW,308,27.0,30.0,63,0.00,,,0.00,Wunderground v.1.15,2013-02-19 21:48:00,
2013-02-19 15:53:00,19.0,8.5,30.19,NW,311,24.0,26.0,63,0.00,,,0.00,Wunderground v.1.15,2013-02-19 21:53:00,
2013-02-19 15:58:00,19.1,8.9,30.19,NW,306,24.0,28.0,64,0.00,,,0.00,Wunderground v.1.15,2013-02-19 21:58:00,
2013-02-19 16:03:00,19.0,8.5,30.19,NW,313,24.0,25.0,63,0.00,,,0.00,Wunderground v.1.15,2013-02-19 22:03:00,
2013-02-19 16:08:00,18.9,8.0,30.19,WNW,302,22.0,30.0,62,0.00,,,0.00,Wunderground v.1.15,2013-02-19 22:08:00,
2013-02-19 16:13:00,18.9,8.4,30.20,WNW,300,28.0,30.0,63,0.00,,,0.00,Wunderground v.1.15,2013-02-19 22:13:00,
2013-02-19 16:18:00,19.0,9.2,30.20,NW,311,24.0,30.0,65,0.00,,,0.00,Wunderground v.1.15,2013-02-19 22:18:00,
2013-02-19 16:23:00,18.6,8.1,30.20,NW,318,22.0,25.0,63,0.00,,,0.00,Wunderground v.1.15,2013-02-19 22:23:00,
2013-02-19 16:28:00,18.8,8.3,30.20,NW,305,19.0,28.0,63,0.00,,,0.00,Wunderground v.1.15,2013-02-19 22:28:00,
2013-02-19 16:34:00,18.7,8.5,30.21,NW,306,20.0,26.0,64,0.00,,,0.00,Wunderground v.1.15,2013-02-19 22:34:00,
2013-02-19 16:39:00,18.6,8.1,30.21,WNW,300,23.0,26.0,63,0.00,,,0.00,Wunderground v.1.15,2013-02-19 22:39:00,
2013-02-19 16:44:00,18.5,8.3,30.21,WNW,297,20.0,25.0,64,0.00,,,0.00,Wunderground v.1.15,2013-02-19 22:44:00,
2013-02-19 16:49:00,18.3,7.8,30.21,NW,318,20.0,30.0,63,0.00,,,0.00,Wunderground v.1.15,2013-02-19 22:49:00,
2013-02-19 16:54:00,18.4,8.6,30.21,WNW,299,23.0,26.0,65,0.00,,,0.00,Wunderground v.1.15,2013-02-19 22:54:00,
2013-02-19 16:59:00,18.3,8.5,30.22,NW,308,21.0,26.0,65,0.00,,,0.00,Wunderground v.1.15,2013-02-19 22:59:00,
2013-02-19 17:04:00,18.1,8.3,30.22,NW,304,19.0,20.0,65,0.00,,,0.00,Wunderground v.1.15,2013-02-19 23:04:00,
2013-02-19 17:09:00,18.0,8.2,30.22,NW,311,25.0,25.0,65,0.00,,,0.00,Wunderground v.1.15,2013-02-19 23:09:00,
2013-02-19 17:14:00,17.8,8.0,30.22,NW,319,17.0,23.0,65,0.00,,,0.00,Wunderground v.1.15,2013-02-19 23:14:00,
2013-02-19 17:19:00,17.7,8.3,30.22,NW,309,15.0,26.0,66,0.00,,,0.00,Wunderground v.1.15,2013-02-19 23:19:00,
2013-02-19 17:24:00,17.5,8.1,30.23,NW,313,14.0,19.0,66,0.00,,,0.00,Wunderground v.1.15,2013-02-19 23:24:00,
2013-02-19 17:29:00,17.4,8.0,30.23,WNW,300,14.0,24.0,66,0.00,,,0.00,Wunderground v.1.15,2013-02-19 23:29:00,
2013-02-19 17:35:00,17.2,8.1,30.23,NW,313,16.0,22.0,67,0.00,,,0.00,Wunderground v.1.15,2013-02-19 23:35:00,
2013-02-19 17:40:00,17.1,8.3,30.23,WNW,302,17.0,22.0,68,0.00,,,0.00,Wunderground v.1.15,2013-02-19 23:40:00,
2013-02-19 17:45:00,16.9,7.8,30.24,NW,306,19.0,19.0,67,0.00,,,0.00,Wunderground v.1.15,2013-02-19 23:45:00,
2013-02-19 17:50:00,16.7,8.0,30.24,WNW,297,18.0,24.0,68,0.00,,,0.00,Wunderground v.1.15,2013-02-19 23:50:00,
2013-02-19 17:55:00,16.6,7.9,30.24,WNW,303,20.0,21.0,68,0.00,,,0.00,Wunderground v.1.15,2013-02-19 23:55:00,
2013-02-19 18:00:00,16.4,7.7,30.24,NW,306,13.0,17.0,68,0.00,,,0.00,Wunderground v.1.15,2013-02-20 00:00:00,
2013-02-19 18:05:00,16.2,7.8,30.24,NW,311,15.0,18.0,69,0.00,,,0.00,Wunderground v.1.15,2013-02-20 00:05:00,
2013-02-19 18:10:00,16.1,8.0,30.25,NW,306,13.0,19.0,70,0.00,,,0.00,Wunderground v.1.15,2013-02-20 00:10:00,
2013-02-19 18:15:00,16.0,7.9,30.25,WNW,291,16.0,17.0,70,0.00,,,0.00,Wunderground v.1.15,2013-02-20 00:15:00,
2013-02-19 18:20:00,15.9,7.8,30.25,WNW,300,15.0,18.0,70,0.00,,,0.00,Wunderground v.1.15,2013-02-20 00:20:00,
2013-02-19 18:25:00,15.9,7.8,30.25,WNW,300,14.0,18.0,70,0.00,,,0.00,Wunderground v.1.15,2013-02-20 00:25:00,
2013-02-19 18:30:00,15.7,8.0,30.25,NW,308,16.0,19.0,71,0.00,,,0.00,Wunderground v.1.15,2013-02-20 00:30:00,
2013-02-19 18:35:00,15.7,7.6,30.26,NW,311,16.0,21.0,70,0.00,,,0.00,Wunderground v.1.15,2013-02-20 00:35:00,
2013-02-19 18:40:00,15.5,7.8,30.25,WNW,303,18.0,21.0,71,0.00,,,0.00,Wunderground v.1.15,2013-02-20 00:40:00,
2013-02-19 18:45:00,15.4,7.7,30.25,WNW,301,18.0,20.0,71,0.00,,,0.00,Wunderground v.1.15,2013-02-20 00:45:00,
2013-02-19 18:50:00,15.2,7.8,30.25,NW,309,10.0,20.0,72,0.00,,,0.00,Wunderground v.1.15,2013-02-20 00:50:00,
2013-02-19 18:55:00,15.1,7.7,30.25,NW,311,14.0,18.0,72,0.00,,,0.00,Wunderground v.1.15,2013-02-20 00:55:00,
2013-02-19 19:02:00,14.9,7.5,30.26,NW,310,11.0,11.0,72,0.00,,,0.00,Wunderground v.1.15,2013-02-20 01:02:00,
2013-02-19 19:07:00,14.8,7.4,30.26,NW,313,14.0,19.0,72,0.00,,,0.00,Wunderground v.1.15,2013-02-20 01:07:00,
2013-02-19 19:13:00,14.6,7.5,30.26,NW,310,14.0,15.0,73,0.00,,,0.00,Wunderground v.1.15,2013-02-20 01:13:00,
2013-02-19 19:18:00,14.5,7.4,30.27,NW,310,12.0,18.0,73,0.00,,,0.00,Wunderground v.1.15,2013-02-20 01:18:00,
2013-02-19 19:23:00,14.3,7.5,30.27,NW,315,14.0,16.0,74,0.00,,,0.00,Wunderground v.1.15,2013-02-20 01:23:00,
2013-02-19 19:28:00,14.1,7.3,30.27,NW,321,20.0,23.0,74,0.00,,,0.00,Wunderground v.1.15,2013-02-20 01:28:00,
2013-02-19 19:33:00,13.9,6.8,30.27,NW,315,17.0,22.0,73,0.00,,,0.00,Wunderground v.1.15,2013-02-20 01:33:00,
2013-02-19 19:38:00,13.6,6.5,30.27,NW,315,19.0,22.0,73,0.00,,,0.00,Wunderground v.1.15,2013-02-20 01:38:00,
2013-02-19 19:43:00,13.4,6.4,30.27,NW,319,17.0,21.0,73,0.00,,,0.00,Wunderground v.1.15,2013-02-20 01:43:00,
2013-02-19 19:49:00,13.1,6.1,30.27,NW,323,19.0,24.0,73,0.00,,,0.00,Wunderground v.1.15,2013-02-20 01:49:00,
2013-02-19 19:54:00,12.9,5.6,30.27,NW,325,25.0,25.0,72,0.00,,,0.00,Wunderground v.1.15,2013-02-20 01:54:00,
2013-02-19 19:59:00,12.6,5.3,30.27,NW,322,17.0,27.0,72,0.00,,,0.00,Wunderground v.1.15,2013-02-20 01:59:00,
2013-02-19 20:04:00,12.4,5.1,30.27,NNW,335,20.0,22.0,72,0.00,,,0.00,Wunderground v.1.15,2013-02-20 02:04:00,
2013-02-19 20:09:00,12.0,5.0,30.28,NW,324,19.0,20.0,73,0.00,,,0.00,Wunderground v.1.15,2013-02-20 02:09:00,
2013-02-19 20:14:00,11.7,4.7,30.28,NW,321,22.0,23.0,73,0.00,,,0.00,Wunderground v.1.15,2013-02-20 02:14:00,
2013-02-19 20:19:00,11.6,4.6,30.28,NW,325,18.0,26.0,73,0.00,,,0.00,Wunderground v.1.15,2013-02-20 02:19:00,
2013-02-19 20:24:00,11.2,4.5,30.29,NNW,330,20.0,22.0,74,0.00,,,0.00,Wunderground v.1.15,2013-02-20 02:24:00,
2013-02-19 20:29:00,11.0,4.3,30.29,NNW,331,20.0,23.0,74,0.00,,,0.00,Wunderground v.1.15,2013-02-20 02:29:00,
2013-02-19 20:34:00,10.3,3.7,30.30,NNW,334,18.0,24.0,74,0.00,,,0.00,Wunderground v.1.15,2013-02-20 02:34:00,
2013-02-19 20:39:00,10.0,3.4,30.30,NW,325,16.0,26.0,74,0.00,,,0.00,Wunderground v.1.15,2013-02-20 02:39:00,
2013-02-19 20:44:00,9.9,3.6,30.31,NNW,334,18.0,18.0,75,0.00,,,0.00,Wunderground v.1.15,2013-02-20 02:44:00,
2013-02-19 20:49:00,9.4,2.8,30.31,NNW,329,20.0,21.0,74,0.00,,,0.00,Wunderground v.1.15,2013-02-20 02:49:00,
2013-02-19 20:54:00,9.1,2.2,30.31,NNW,334,18.0,26.0,73,0.00,,,0.00,Wunderground v.1.15,2013-02-20 02:54:00,
2013-02-19 20:59:00,8.8,2.2,30.32,NNW,343,21.0,26.0,74,0.00,,,0.00,Wunderground v.1.15,2013-02-20 02:59:00,
2013-02-19 21:04:00,8.3,2.0,30.32,NNW,339,18.0,20.0,75,0.00,,,0.00,Wunderground v.1.15,2013-02-20 03:04:00,
2013-02-19 21:09:00,8.0,1.4,30.32,NNW,337,20.0,24.0,74,0.00,,,0.00,Wunderground v.1.15,2013-02-20 03:09:00,
2013-02-19 21:14:00,7.8,1.8,30.32,NNW,342,14.0,18.0,76,0.00,,,0.00,Wunderground v.1.15,2013-02-20 03:14:00,
2013-02-19 21:19:00,7.5,1.8,30.32,NNW,342,20.0,23.0,77,0.00,,,0.00,Wunderground v.1.15,2013-02-20 03:19:00,
2013-02-19 21:24:00,7.1,1.1,30.33,NNW,342,14.0,22.0,76,0.00,,,0.00,Wunderground v.1.15,2013-02-20 03:24:00,
2013-02-19 21:29:00,6.7,0.5,30.33,NNW,327,17.0,24.0,75,0.00,,,0.00,Wunderground v.1.15,2013-02-20 03:29:00,
2013-02-19 21:34:00,6.4,0.4,30.33,NNW,338,19.0,24.0,76,0.00,,,0.00,Wunderground v.1.15,2013-02-20 03:34:00,
2013-02-19 21:39:00,6.2,0.3,30.33,NNW,339,13.0,24.0,76,0.00,,,0.00,Wunderground v.1.15,2013-02-20 03:39:00,
2013-02-19 21:44:00,6.1,0.4,30.34,NNW,346,18.0,18.0,77,0.00,,,0.00,Wunderground v.1.15,2013-02-20 03:44:00,
2013-02-19 21:49:00,6.0,0.3,30.34,NNW,342,17.0,21.0,77,0.00,,,0.00,Wunderground v.1.15,2013-02-20 03:49:00,
2013-02-19 21:54:00,5.8,-0.1,30.34,NNW,336,21.0,21.0,76,0.00,,,0.00,Wunderground v.1.15,2013-02-20 03:54:00,
2013-02-19 22:00:00,5.5,-0.4,30.34,NNW,334,16.0,18.0,76,0.00,,,0.00,Wunderground v.1.15,2013-02-20 04:00:00,
2013-02-19 22:05:00,5.4,-0.2,30.35,NNW,340,14.0,17.0,77,0.00,,,0.00,Wunderground v.1.15,2013-02-20 04:05:00,
2013-02-19 22:10:00,5.3,-0.3,30.35,NNW,335,12.0,16.0,77,0.00,,,0.00,Wunderground v.1.15,2013-02-20 04:10:00,
2013-02-19 22:15:00,5.1,-0.5,30.35,NNW,338,13.0,18.0,77,0.00,,,0.00,Wunderground v.1.15,2013-02-20 04:15:00,
2013-02-19 22:20:00,5.0,-0.6,30.35,NNW,338,19.0,19.0,77,0.00,,,0.00,Wunderground v.1.15,2013-02-20 04:20:00,
2013-02-19 22:25:00,4.9,-0.7,30.35,NNW,342,14.0,20.0,77,0.00,,,0.00,Wunderground v.1.15,2013-02-20 04:25:00,
2013-02-19 22:30:00,4.8,-0.8,30.35,North,350,16.0,20.0,77,0.00,,,0.00,Wunderground v.1.15,2013-02-20 04:30:00,
2013-02-19 22:35:00,4.7,-0.9,30.35,NNW,337,16.0,19.0,77,0.00,,,0.00,Wunderground v.1.15,2013-02-20 04:35:00,
2013-02-19 22:40:00,4.7,-0.9,30.36,North,350,14.0,19.0,77,0.00,,,0.00,Wunderground v.1.15,2013-02-20 04:40:00,
2013-02-19 22:45:00,4.6,-0.8,30.35,NNW,338,13.0,17.0,78,0.00,,,0.00,Wunderground v.1.15,2013-02-20 04:45:00,
2013-02-19 22:50:00,4.6,-0.8,30.36,NNW,341,15.0,17.0,78,0.00,,,0.00,Wunderground v.1.15,2013-02-20 04:50:00,
2013-02-19 22:55:00,4.5,-0.8,30.36,NNW,337,11.0,14.0,78,0.00,,,0.00,Wunderground v.1.15,2013-02-20 04:55:00,
2013-02-19 23:00:00,4.5,-0.8,30.37,NNW,337,11.0,12.0,78,0.00,,,0.00,Wunderground v.1.15,2013-02-20 05:00:00,
2013-02-19 23:05:00,4.3,-1.0,30.36,NNW,338,11.0,15.0,78,0.00,,,0.00,Wunderground v.1.15,2013-02-20 05:05:00,
2013-02-19 23:10:00,4.2,-1.1,30.36,NNW,331,12.0,16.0,78,0.00,,,0.00,Wunderground v.1.15,2013-02-20 05:10:00,
2013-02-19 23:15:00,4.1,-1.2,30.37,NW,323,13.0,15.0,78,0.00,,,0.00,Wunderground v.1.15,2013-02-20 05:15:00,
2013-02-19 23:21:00,4.1,-1.2,30.38,NW,326,11.0,15.0,78,0.00,,,0.00,Wunderground v.1.15,2013-02-20 05:21:00,
2013-02-19 23:26:00,4.0,-1.3,30.38,NNW,340,12.0,14.0,78,0.00,,,0.00,Wunderground v.1.15,2013-02-20 05:26:00,
2013-02-19 23:31:00,4.0,-1.3,30.38,NNW,336,11.0,14.0,78,0.00,,,0.00,Wunderground v.1.15,2013-02-20 05:31:00,
2013-02-19 23:36:00,3.9,-1.7,30.38,NNW,343,14.0,15.0,77,0.00,,,0.00,Wunderground v.1.15,2013-02-20 05:36:00,
2013-02-19 23:41:00,3.9,-2.0,30.38,NNW,342,13.0,16.0,76,0.00,,,0.00,Wunderground v.1.15,2013-02-20 05:41:00,
2013-02-19 23:46:00,3.8,-2.1,30.38,NNW,344,14.0,15.0,76,0.00,,,0.00,Wunderground v.1.15,2013-02-20 05:46:00,
2013-02-19 23:50:00,3.8,-1.8,30.38,North,350,14.0,16.0,77,0.00,,,0.00,Wunderground v.1.15,2013-02-20 05:50:00,
2013-02-19 23:56:00,3.8,-2.1,30.38,NNW,346,11.0,14.0,76,0.00,,,0.00,Wunderground v.1.15,2013-02-20 05:56:00,